sensor_id;sensor_type;location;lat;lon;timestamp;P1;durP1;ratioP1;P2;durP2;ratioP2
11396;SDS011;5754;43.726;7.416;2023-11-19T00:02:08;27.47;;;26.17;;
11396;SDS011;5754;43.726;7.416;2023-11-19T00:04:43;28.00;;;26.57;;
11396;SDS011;5754;43.726;7.416;2023-11-19T00:07:18;28.27;;;26.80;;
11396;SDS011;5754;43.726;7.416;2023-11-19T00:09:55;27.73;;;26.33;;
11396;SDS011;5754;43.726;7.416;2023-11-19T00:12:32;29.53;;;27.97;;
11396;SDS011;5754;43.726;7.416;2023-11-19T00:15:07;27.60;;;26.20;;
11396;SDS011;5754;43.726;7.416;2023-11-19T00:17:48;27.57;;;26.27;;
11396;SDS011;5754;43.726;7.416;2023-11-19T00:20:23;27.70;;;26.30;;
11396;SDS011;5754;43.726;7.416;2023-11-19T00:22:58;26.20;;;24.90;;
11396;SDS011;5754;43.726;7.416;2023-11-19T00:25:33;27.27;;;25.90;;
11396;SDS011;5754;43.726;7.416;2023-11-19T00:28:09;25.47;;;24.37;;
11396;SDS011;5754;43.726;7.416;2023-11-19T00:30:43;25.90;;;24.80;;
11396;SDS011;5754;43.726;7.416;2023-11-19T00:33:18;26.43;;;25.17;;
11396;SDS011;5754;43.726;7.416;2023-11-19T00:35:52;25.43;;;24.13;;
11396;SDS011;5754;43.726;7.416;2023-11-19T00:38:27;22.67;;;21.37;;
11396;SDS011;5754;43.726;7.416;2023-11-19T00:41:02;23.07;;;21.87;;
11396;SDS011;5754;43.726;7.416;2023-11-19T00:43:37;24.43;;;22.77;;
11396;SDS011;5754;43.726;7.416;2023-11-19T00:46:13;22.37;;;21.27;;
11396;SDS011;5754;43.726;7.416;2023-11-19T00:48:47;23.60;;;22.40;;
11396;SDS011;5754;43.726;7.416;2023-11-19T00:51:23;22.43;;;21.43;;
11396;SDS011;5754;43.726;7.416;2023-11-19T00:53:58;23.30;;;21.90;;
11396;SDS011;5754;43.726;7.416;2023-11-19T00:56:33;21.93;;;20.97;;
11396;SDS011;5754;43.726;7.416;2023-11-19T00:59:08;23.90;;;22.57;;
11396;SDS011;5754;43.726;7.416;2023-11-19T01:01:46;23.37;;;22.27;;
11396;SDS011;5754;43.726;7.416;2023-11-19T01:04:21;23.03;;;21.97;;
11396;SDS011;5754;43.726;7.416;2023-11-19T01:07:00;22.87;;;21.63;;
11396;SDS011;5754;43.726;7.416;2023-11-19T01:09:37;23.27;;;22.07;;
11396;SDS011;5754;43.726;7.416;2023-11-19T01:12:12;23.20;;;22.10;;
11396;SDS011;5754;43.726;7.416;2023-11-19T01:14:48;23.40;;;22.10;;
11396;SDS011;5754;43.726;7.416;2023-11-19T01:17:23;23.07;;;21.97;;
11396;SDS011;5754;43.726;7.416;2023-11-19T01:19:58;23.20;;;21.60;;
11396;SDS011;5754;43.726;7.416;2023-11-19T01:22:33;23.10;;;21.60;;
11396;SDS011;5754;43.726;7.416;2023-11-19T01:25:08;23.57;;;22.10;;
11396;SDS011;5754;43.726;7.416;2023-11-19T01:27:43;23.20;;;22.10;;
11396;SDS011;5754;43.726;7.416;2023-11-19T01:30:18;23.60;;;22.50;;
11396;SDS011;5754;43.726;7.416;2023-11-19T01:32:56;24.30;;;23.17;;
11396;SDS011;5754;43.726;7.416;2023-11-19T01:35:31;25.37;;;23.87;;
11396;SDS011;5754;43.726;7.416;2023-11-19T01:38:05;23.50;;;22.30;;
11396;SDS011;5754;43.726;7.416;2023-11-19T01:40:42;23.53;;;22.37;;
11396;SDS011;5754;43.726;7.416;2023-11-19T01:43:36;23.83;;;22.67;;
11396;SDS011;5754;43.726;7.416;2023-11-19T01:46:11;23.60;;;22.50;;
11396;SDS011;5754;43.726;7.416;2023-11-19T01:48:46;23.50;;;22.40;;
11396;SDS011;5754;43.726;7.416;2023-11-19T01:51:21;25.57;;;24.30;;
11396;SDS011;5754;43.726;7.416;2023-11-19T01:53:57;23.83;;;22.73;;
11396;SDS011;5754;43.726;7.416;2023-11-19T01:56:32;25.03;;;23.73;;
11396;SDS011;5754;43.726;7.416;2023-11-19T01:59:08;23.77;;;22.60;;
11396;SDS011;5754;43.726;7.416;2023-11-19T02:01:43;24.53;;;23.30;;
11396;SDS011;5754;43.726;7.416;2023-11-19T02:04:19;25.13;;;23.93;;
11396;SDS011;5754;43.726;7.416;2023-11-19T02:06:55;25.17;;;23.87;;
11396;SDS011;5754;43.726;7.416;2023-11-19T02:09:31;24.27;;;23.17;;
11396;SDS011;5754;43.726;7.416;2023-11-19T02:12:07;24.87;;;23.67;;
11396;SDS011;5754;43.726;7.416;2023-11-19T02:14:42;25.27;;;23.83;;
11396;SDS011;5754;43.726;7.416;2023-11-19T02:17:29;24.37;;;23.07;;
11396;SDS011;5754;43.726;7.416;2023-11-19T02:20:14;24.30;;;23.10;;
11396;SDS011;5754;43.726;7.416;2023-11-19T02:22:49;24.70;;;23.30;;
11396;SDS011;5754;43.726;7.416;2023-11-19T02:25:30;24.30;;;23.20;;
11396;SDS011;5754;43.726;7.416;2023-11-19T02:28:06;24.27;;;23.17;;
11396;SDS011;5754;43.726;7.416;2023-11-19T02:30:43;24.27;;;23.10;;
11396;SDS011;5754;43.726;7.416;2023-11-19T02:33:17;24.57;;;23.23;;
11396;SDS011;5754;43.726;7.416;2023-11-19T02:35:52;23.80;;;22.50;;
11396;SDS011;5754;43.726;7.416;2023-11-19T02:38:27;23.93;;;22.57;;
11396;SDS011;5754;43.726;7.416;2023-11-19T02:41:03;25.00;;;23.80;;
11396;SDS011;5754;43.726;7.416;2023-11-19T02:43:41;24.57;;;23.40;;
11396;SDS011;5754;43.726;7.416;2023-11-19T02:46:17;23.90;;;22.50;;
11396;SDS011;5754;43.726;7.416;2023-11-19T02:48:55;23.30;;;22.10;;
11396;SDS011;5754;43.726;7.416;2023-11-19T02:51:31;24.07;;;22.97;;
11396;SDS011;5754;43.726;7.416;2023-11-19T02:54:06;23.20;;;22.10;;
11396;SDS011;5754;43.726;7.416;2023-11-19T02:56:44;23.57;;;22.30;;
11396;SDS011;5754;43.726;7.416;2023-11-19T02:59:23;23.10;;;21.87;;
11396;SDS011;5754;43.726;7.416;2023-11-19T03:02:01;22.80;;;21.40;;
11396;SDS011;5754;43.726;7.416;2023-11-19T03:04:37;24.00;;;22.90;;
11396;SDS011;5754;43.726;7.416;2023-11-19T03:07:22;22.77;;;21.77;;
11396;SDS011;5754;43.726;7.416;2023-11-19T03:09:56;22.97;;;21.87;;
11396;SDS011;5754;43.726;7.416;2023-11-19T03:12:32;23.23;;;22.13;;
11396;SDS011;5754;43.726;7.416;2023-11-19T03:15:07;23.13;;;21.83;;
11396;SDS011;5754;43.726;7.416;2023-11-19T03:17:45;22.63;;;21.53;;
11396;SDS011;5754;43.726;7.416;2023-11-19T03:20:19;23.17;;;21.87;;
11396;SDS011;5754;43.726;7.416;2023-11-19T03:22:56;22.40;;;21.30;;
11396;SDS011;5754;43.726;7.416;2023-11-19T03:25:31;21.40;;;20.40;;
11396;SDS011;5754;43.726;7.416;2023-11-19T03:28:12;22.37;;;21.37;;
11396;SDS011;5754;43.726;7.416;2023-11-19T03:30:48;22.70;;;21.67;;
11396;SDS011;5754;43.726;7.416;2023-11-19T03:33:23;21.67;;;20.70;;
11396;SDS011;5754;43.726;7.416;2023-11-19T03:36:00;21.87;;;20.87;;
11396;SDS011;5754;43.726;7.416;2023-11-19T03:38:39;23.67;;;22.43;;
11396;SDS011;5754;43.726;7.416;2023-11-19T03:41:16;21.87;;;20.70;;
11396;SDS011;5754;43.726;7.416;2023-11-19T03:43:54;23.07;;;21.93;;
11396;SDS011;5754;43.726;7.416;2023-11-19T03:46:30;22.20;;;21.10;;
11396;SDS011;5754;43.726;7.416;2023-11-19T03:49:06;22.00;;;20.90;;
11396;SDS011;5754;43.726;7.416;2023-11-19T03:51:41;22.57;;;21.47;;
11396;SDS011;5754;43.726;7.416;2023-11-19T03:54:20;22.43;;;21.43;;
11396;SDS011;5754;43.726;7.416;2023-11-19T03:56:56;21.10;;;20.20;;
11396;SDS011;5754;43.726;7.416;2023-11-19T03:59:30;21.83;;;20.77;;
11396;SDS011;5754;43.726;7.416;2023-11-19T04:02:07;22.53;;;21.40;;
11396;SDS011;5754;43.726;7.416;2023-11-19T04:04:41;22.27;;;20.97;;
11396;SDS011;5754;43.726;7.416;2023-11-19T04:07:16;21.43;;;20.30;;
11396;SDS011;5754;43.726;7.416;2023-11-19T04:09:51;21.73;;;20.73;;
11396;SDS011;5754;43.726;7.416;2023-11-19T04:12:26;20.67;;;19.67;;
11396;SDS011;5754;43.726;7.416;2023-11-19T04:15:01;21.47;;;20.47;;
11396;SDS011;5754;43.726;7.416;2023-11-19T04:17:37;22.33;;;21.20;;
11396;SDS011;5754;43.726;7.416;2023-11-19T04:20:13;21.93;;;20.57;;
11396;SDS011;5754;43.726;7.416;2023-11-19T04:22:49;21.23;;;20.23;;
11396;SDS011;5754;43.726;7.416;2023-11-19T04:25:26;21.70;;;20.57;;
11396;SDS011;5754;43.726;7.416;2023-11-19T04:28:01;20.53;;;19.43;;
11396;SDS011;5754;43.726;7.416;2023-11-19T04:30:36;22.30;;;20.77;;
11396;SDS011;5754;43.726;7.416;2023-11-19T04:33:12;22.77;;;21.57;;
11396;SDS011;5754;43.726;7.416;2023-11-19T04:35:46;20.43;;;19.43;;
11396;SDS011;5754;43.726;7.416;2023-11-19T04:38:21;20.50;;;19.50;;
11396;SDS011;5754;43.726;7.416;2023-11-19T04:41:00;21.07;;;19.67;;
11396;SDS011;5754;43.726;7.416;2023-11-19T04:43:42;20.20;;;19.20;;
11396;SDS011;5754;43.726;7.416;2023-11-19T04:46:18;21.20;;;20.10;;
11396;SDS011;5754;43.726;7.416;2023-11-19T04:48:54;20.90;;;19.87;;
11396;SDS011;5754;43.726;7.416;2023-11-19T04:51:29;20.87;;;19.87;;
11396;SDS011;5754;43.726;7.416;2023-11-19T04:54:06;21.03;;;19.80;;
11396;SDS011;5754;43.726;7.416;2023-11-19T04:56:44;20.50;;;19.40;;
11396;SDS011;5754;43.726;7.416;2023-11-19T04:59:22;20.50;;;19.57;;
11396;SDS011;5754;43.726;7.416;2023-11-19T05:01:57;20.90;;;19.80;;
11396;SDS011;5754;43.726;7.416;2023-11-19T05:04:32;20.10;;;19.20;;
11396;SDS011;5754;43.726;7.416;2023-11-19T05:07:10;21.07;;;19.97;;
11396;SDS011;5754;43.726;7.416;2023-11-19T05:09:45;22.83;;;21.70;;
11396;SDS011;5754;43.726;7.416;2023-11-19T05:12:23;21.87;;;20.77;;
11396;SDS011;5754;43.726;7.416;2023-11-19T05:14:57;21.63;;;20.53;;
11396;SDS011;5754;43.726;7.416;2023-11-19T05:17:38;19.87;;;18.90;;
11396;SDS011;5754;43.726;7.416;2023-11-19T05:20:15;20.67;;;19.53;;
11396;SDS011;5754;43.726;7.416;2023-11-19T05:22:53;21.33;;;20.23;;
11396;SDS011;5754;43.726;7.416;2023-11-19T05:25:28;20.70;;;19.80;;
11396;SDS011;5754;43.726;7.416;2023-11-19T05:28:03;20.77;;;19.77;;
11396;SDS011;5754;43.726;7.416;2023-11-19T05:30:38;20.67;;;19.53;;
11396;SDS011;5754;43.726;7.416;2023-11-19T05:33:13;19.53;;;18.60;;
11396;SDS011;5754;43.726;7.416;2023-11-19T05:35:48;20.00;;;19.00;;
11396;SDS011;5754;43.726;7.416;2023-11-19T05:38:24;20.00;;;18.90;;
11396;SDS011;5754;43.726;7.416;2023-11-19T05:41:00;20.17;;;19.27;;
11396;SDS011;5754;43.726;7.416;2023-11-19T05:43:35;19.70;;;18.60;;
11396;SDS011;5754;43.726;7.416;2023-11-19T05:46:11;20.80;;;19.57;;
11396;SDS011;5754;43.726;7.416;2023-11-19T05:48:49;21.00;;;19.80;;
11396;SDS011;5754;43.726;7.416;2023-11-19T05:51:25;20.83;;;19.77;;
11396;SDS011;5754;43.726;7.416;2023-11-19T05:54:00;20.50;;;19.50;;
11396;SDS011;5754;43.726;7.416;2023-11-19T05:56:35;20.10;;;19.20;;
11396;SDS011;5754;43.726;7.416;2023-11-19T05:59:11;20.67;;;19.77;;
11396;SDS011;5754;43.726;7.416;2023-11-19T06:01:48;21.17;;;20.17;;
11396;SDS011;5754;43.726;7.416;2023-11-19T06:04:23;20.33;;;19.33;;
11396;SDS011;5754;43.726;7.416;2023-11-19T06:06:58;20.80;;;19.80;;
11396;SDS011;5754;43.726;7.416;2023-11-19T06:09:33;21.20;;;20.30;;
11396;SDS011;5754;43.726;7.416;2023-11-19T06:12:09;21.00;;;20.00;;
11396;SDS011;5754;43.726;7.416;2023-11-19T06:14:43;20.60;;;19.60;;
11396;SDS011;5754;43.726;7.416;2023-11-19T06:17:19;20.47;;;19.37;;
11396;SDS011;5754;43.726;7.416;2023-11-19T06:19:53;20.23;;;19.23;;
11396;SDS011;5754;43.726;7.416;2023-11-19T06:22:28;20.70;;;19.50;;
11396;SDS011;5754;43.726;7.416;2023-11-19T06:25:03;20.63;;;19.53;;
11396;SDS011;5754;43.726;7.416;2023-11-19T06:27:41;20.43;;;19.33;;
11396;SDS011;5754;43.726;7.416;2023-11-19T06:30:16;20.73;;;19.73;;
11396;SDS011;5754;43.726;7.416;2023-11-19T06:32:51;22.30;;;21.00;;
11396;SDS011;5754;43.726;7.416;2023-11-19T06:35:30;20.67;;;19.57;;
11396;SDS011;5754;43.726;7.416;2023-11-19T06:38:10;20.43;;;19.37;;
11396;SDS011;5754;43.726;7.416;2023-11-19T06:40:45;21.37;;;20.33;;
11396;SDS011;5754;43.726;7.416;2023-11-19T06:43:19;23.23;;;21.93;;
11396;SDS011;5754;43.726;7.416;2023-11-19T06:45:56;22.47;;;21.27;;
11396;SDS011;5754;43.726;7.416;2023-11-19T06:48:33;22.07;;;20.87;;
11396;SDS011;5754;43.726;7.416;2023-11-19T06:51:09;23.73;;;22.33;;
11396;SDS011;5754;43.726;7.416;2023-11-19T06:53:46;23.80;;;22.60;;
11396;SDS011;5754;43.726;7.416;2023-11-19T06:56:23;24.90;;;23.43;;
11396;SDS011;5754;43.726;7.416;2023-11-19T06:58:58;24.03;;;22.73;;
11396;SDS011;5754;43.726;7.416;2023-11-19T07:01:36;25.17;;;23.97;;
11396;SDS011;5754;43.726;7.416;2023-11-19T07:04:11;24.30;;;22.90;;
11396;SDS011;5754;43.726;7.416;2023-11-19T07:06:47;25.33;;;24.23;;
11396;SDS011;5754;43.726;7.416;2023-11-19T07:09:26;28.03;;;26.43;;
11396;SDS011;5754;43.726;7.416;2023-11-19T07:12:01;29.40;;;27.80;;
11396;SDS011;5754;43.726;7.416;2023-11-19T07:14:38;27.93;;;26.30;;
11396;SDS011;5754;43.726;7.416;2023-11-19T07:17:13;27.70;;;26.30;;
11396;SDS011;5754;43.726;7.416;2023-11-19T07:19:49;27.30;;;25.80;;
11396;SDS011;5754;43.726;7.416;2023-11-19T07:22:25;26.67;;;25.17;;
11396;SDS011;5754;43.726;7.416;2023-11-19T07:24:59;27.40;;;26.03;;
11396;SDS011;5754;43.726;7.416;2023-11-19T07:27:35;26.47;;;25.07;;
11396;SDS011;5754;43.726;7.416;2023-11-19T07:30:09;26.43;;;24.93;;
11396;SDS011;5754;43.726;7.416;2023-11-19T07:32:44;27.87;;;26.37;;
11396;SDS011;5754;43.726;7.416;2023-11-19T07:35:19;28.10;;;26.67;;
11396;SDS011;5754;43.726;7.416;2023-11-19T07:37:54;28.15;;;26.75;;
11396;SDS011;5754;43.726;7.416;2023-11-19T07:40:28;28.83;;;27.33;;
11396;SDS011;5754;43.726;7.416;2023-11-19T07:43:03;28.15;;;26.85;;
11396;SDS011;5754;43.726;7.416;2023-11-19T07:45:38;29.20;;;27.75;;
11396;SDS011;5754;43.726;7.416;2023-11-19T07:48:15;30.95;;;29.45;;
11396;SDS011;5754;43.726;7.416;2023-11-19T07:50:53;30.65;;;29.05;;
11396;SDS011;5754;43.726;7.416;2023-11-19T07:53:28;31.95;;;30.15;;
11396;SDS011;5754;43.726;7.416;2023-11-19T07:56:04;31.37;;;29.95;;
11396;SDS011;5754;43.726;7.416;2023-11-19T07:58:43;31.65;;;30.15;;
11396;SDS011;5754;43.726;7.416;2023-11-19T08:01:23;31.75;;;30.25;;
11396;SDS011;5754;43.726;7.416;2023-11-19T08:03:59;32.25;;;30.75;;
11396;SDS011;5754;43.726;7.416;2023-11-19T08:06:35;32.33;;;30.62;;
11396;SDS011;5754;43.726;7.416;2023-11-19T08:09:11;32.45;;;30.95;;
11396;SDS011;5754;43.726;7.416;2023-11-19T08:11:48;33.22;;;31.52;;
11396;SDS011;5754;43.726;7.416;2023-11-19T08:14:24;34.15;;;32.55;;
11396;SDS011;5754;43.726;7.416;2023-11-19T08:16:59;33.55;;;31.90;;
11396;SDS011;5754;43.726;7.416;2023-11-19T08:19:34;33.28;;;31.70;;
11396;SDS011;5754;43.726;7.416;2023-11-19T08:22:12;33.95;;;32.35;;
11396;SDS011;5754;43.726;7.416;2023-11-19T08:24:46;33.83;;;32.13;;
11396;SDS011;5754;43.726;7.416;2023-11-19T08:27:21;33.78;;;32.17;;
11396;SDS011;5754;43.726;7.416;2023-11-19T08:30:00;34.03;;;32.53;;
11396;SDS011;5754;43.726;7.416;2023-11-19T08:32:36;33.35;;;31.85;;
11396;SDS011;5754;43.726;7.416;2023-11-19T08:35:10;35.35;;;33.60;;
11396;SDS011;5754;43.726;7.416;2023-11-19T08:37:45;33.08;;;31.58;;
11396;SDS011;5754;43.726;7.416;2023-11-19T08:40:21;33.47;;;31.98;;
11396;SDS011;5754;43.726;7.416;2023-11-19T08:42:56;34.58;;;32.88;;
11396;SDS011;5754;43.726;7.416;2023-11-19T08:45:32;35.65;;;33.95;;
11396;SDS011;5754;43.726;7.416;2023-11-19T08:48:09;34.92;;;33.40;;
11396;SDS011;5754;43.726;7.416;2023-11-19T08:50:45;36.25;;;34.65;;
11396;SDS011;5754;43.726;7.416;2023-11-19T08:53:19;36.55;;;34.90;;
11396;SDS011;5754;43.726;7.416;2023-11-19T08:55:54;36.22;;;34.60;;
11396;SDS011;5754;43.726;7.416;2023-11-19T08:58:29;36.88;;;35.08;;
11396;SDS011;5754;43.726;7.416;2023-11-19T09:01:05;36.65;;;35.05;;
11396;SDS011;5754;43.726;7.416;2023-11-19T09:03:39;36.67;;;34.85;;
11396;SDS011;5754;43.726;7.416;2023-11-19T09:06:14;37.15;;;35.47;;
11396;SDS011;5754;43.726;7.416;2023-11-19T09:08:49;36.05;;;34.45;;
11396;SDS011;5754;43.726;7.416;2023-11-19T09:11:24;37.33;;;35.63;;
11396;SDS011;5754;43.726;7.416;2023-11-19T09:13:59;35.03;;;33.42;;
11396;SDS011;5754;43.726;7.416;2023-11-19T09:16:33;35.13;;;33.53;;
11396;SDS011;5754;43.726;7.416;2023-11-19T09:19:08;34.55;;;33.03;;
11396;SDS011;5754;43.726;7.416;2023-11-19T09:21:43;34.40;;;32.72;;
11396;SDS011;5754;43.726;7.416;2023-11-19T09:24:18;34.65;;;33.15;;
11396;SDS011;5754;43.726;7.416;2023-11-19T09:26:52;34.88;;;33.13;;
11396;SDS011;5754;43.726;7.416;2023-11-19T09:29:30;34.92;;;33.33;;
11396;SDS011;5754;43.726;7.416;2023-11-19T09:32:06;35.03;;;33.33;;
11396;SDS011;5754;43.726;7.416;2023-11-19T09:34:42;35.60;;;33.70;;
11396;SDS011;5754;43.726;7.416;2023-11-19T09:37:17;35.70;;;33.83;;
11396;SDS011;5754;43.726;7.416;2023-11-19T09:39:55;35.42;;;33.83;;
11396;SDS011;5754;43.726;7.416;2023-11-19T09:42:33;36.40;;;34.55;;
11396;SDS011;5754;43.726;7.416;2023-11-19T09:45:12;37.63;;;35.72;;
11396;SDS011;5754;43.726;7.416;2023-11-19T09:47:49;36.92;;;35.33;;
11396;SDS011;5754;43.726;7.416;2023-11-19T09:50:26;37.35;;;35.55;;
11396;SDS011;5754;43.726;7.416;2023-11-19T09:53:01;36.80;;;35.10;;
11396;SDS011;5754;43.726;7.416;2023-11-19T09:55:37;36.45;;;34.60;;
11396;SDS011;5754;43.726;7.416;2023-11-19T09:58:12;36.08;;;34.38;;
11396;SDS011;5754;43.726;7.416;2023-11-19T10:00:49;36.78;;;34.97;;
11396;SDS011;5754;43.726;7.416;2023-11-19T10:03:32;36.25;;;34.65;;
11396;SDS011;5754;43.726;7.416;2023-11-19T10:06:08;37.58;;;35.88;;
11396;SDS011;5754;43.726;7.416;2023-11-19T10:08:43;37.63;;;36.03;;
11396;SDS011;5754;43.726;7.416;2023-11-19T10:11:18;36.97;;;35.17;;
11396;SDS011;5754;43.726;7.416;2023-11-19T10:13:53;36.40;;;34.80;;
11396;SDS011;5754;43.726;7.416;2023-11-19T10:16:29;36.97;;;35.38;;
11396;SDS011;5754;43.726;7.416;2023-11-19T10:19:04;36.80;;;35.10;;
11396;SDS011;5754;43.726;7.416;2023-11-19T10:21:39;36.72;;;35.08;;
11396;SDS011;5754;43.726;7.416;2023-11-19T10:24:14;36.47;;;34.88;;
11396;SDS011;5754;43.726;7.416;2023-11-19T10:27:07;35.97;;;34.28;;
11396;SDS011;5754;43.726;7.416;2023-11-19T10:29:45;36.08;;;34.38;;
11396;SDS011;5754;43.726;7.416;2023-11-19T10:32:20;35.63;;;33.83;;
11396;SDS011;5754;43.726;7.416;2023-11-19T10:35:04;35.15;;;33.65;;
11396;SDS011;5754;43.726;7.416;2023-11-19T10:37:42;35.33;;;33.83;;
11396;SDS011;5754;43.726;7.416;2023-11-19T10:40:16;34.63;;;33.03;;
11396;SDS011;5754;43.726;7.416;2023-11-19T10:43:01;35.28;;;33.67;;
11396;SDS011;5754;43.726;7.416;2023-11-19T10:45:37;35.30;;;33.75;;
11396;SDS011;5754;43.726;7.416;2023-11-19T10:48:13;35.05;;;33.33;;
11396;SDS011;5754;43.726;7.416;2023-11-19T10:50:49;35.15;;;33.35;;
11396;SDS011;5754;43.726;7.416;2023-11-19T10:53:28;34.53;;;32.92;;
11396;SDS011;5754;43.726;7.416;2023-11-19T10:56:04;34.10;;;32.50;;
11396;SDS011;5754;43.726;7.416;2023-11-19T10:58:44;34.67;;;32.97;;
11396;SDS011;5754;43.726;7.416;2023-11-19T11:01:21;34.20;;;32.60;;
11396;SDS011;5754;43.726;7.416;2023-11-19T11:03:57;35.22;;;33.50;;
11396;SDS011;5754;43.726;7.416;2023-11-19T11:06:33;34.75;;;33.15;;
11396;SDS011;5754;43.726;7.416;2023-11-19T11:09:09;35.45;;;33.65;;
11396;SDS011;5754;43.726;7.416;2023-11-19T11:11:52;33.97;;;32.47;;
11396;SDS011;5754;43.726;7.416;2023-11-19T11:14:28;34.33;;;32.72;;
11396;SDS011;5754;43.726;7.416;2023-11-19T11:17:03;36.85;;;35.05;;
11396;SDS011;5754;43.726;7.416;2023-11-19T11:19:41;34.30;;;32.72;;
11396;SDS011;5754;43.726;7.416;2023-11-19T11:22:17;34.45;;;32.53;;
11396;SDS011;5754;43.726;7.416;2023-11-19T11:25:33;33.97;;;32.47;;
11396;SDS011;5754;43.726;7.416;2023-11-19T11:33:56;32.40;;;30.95;;
11396;SDS011;5754;43.726;7.416;2023-11-19T11:36:42;31.80;;;30.20;;
11396;SDS011;5754;43.726;7.416;2023-11-19T11:39:21;31.98;;;30.45;;
11396;SDS011;5754;43.726;7.416;2023-11-19T11:44:59;32.10;;;30.70;;
11396;SDS011;5754;43.726;7.416;2023-11-19T11:48:10;32.20;;;30.60;;
11396;SDS011;5754;43.726;7.416;2023-11-19T11:50:50;31.50;;;30.00;;
11396;SDS011;5754;43.726;7.416;2023-11-19T11:53:25;30.98;;;29.58;;
11396;SDS011;5754;43.726;7.416;2023-11-19T11:56:01;31.48;;;30.08;;
11396;SDS011;5754;43.726;7.416;2023-11-19T11:58:37;32.33;;;30.75;;
11396;SDS011;5754;43.726;7.416;2023-11-19T12:01:14;31.48;;;29.87;;
11396;SDS011;5754;43.726;7.416;2023-11-19T12:03:57;31.52;;;29.92;;
11396;SDS011;5754;43.726;7.416;2023-11-19T12:06:34;29.87;;;28.38;;
11396;SDS011;5754;43.726;7.416;2023-11-19T12:09:11;32.00;;;30.42;;
11396;SDS011;5754;43.726;7.416;2023-11-19T12:11:47;30.42;;;28.83;;
11396;SDS011;5754;43.726;7.416;2023-11-19T12:14:59;30.92;;;29.52;;
11396;SDS011;5754;43.726;7.416;2023-11-19T12:17:37;30.92;;;29.52;;
11396;SDS011;5754;43.726;7.416;2023-11-19T12:20:18;30.33;;;28.83;;
11396;SDS011;5754;43.726;7.416;2023-11-19T12:22:56;30.45;;;28.85;;
11396;SDS011;5754;43.726;7.416;2023-11-19T12:25:32;29.67;;;28.23;;
11396;SDS011;5754;43.726;7.416;2023-11-19T12:28:13;29.95;;;28.45;;
11396;SDS011;5754;43.726;7.416;2023-11-19T12:30:48;30.48;;;29.05;;
11396;SDS011;5754;43.726;7.416;2023-11-19T12:33:23;29.55;;;28.15;;
11396;SDS011;5754;43.726;7.416;2023-11-19T12:35:58;29.37;;;27.97;;
11396;SDS011;5754;43.726;7.416;2023-11-19T12:38:38;29.42;;;27.98;;
11396;SDS011;5754;43.726;7.416;2023-11-19T12:41:14;29.30;;;28.00;;
11396;SDS011;5754;43.726;7.416;2023-11-19T12:44:08;28.73;;;27.40;;
11396;SDS011;5754;43.726;7.416;2023-11-19T12:46:44;28.50;;;27.10;;
11396;SDS011;5754;43.726;7.416;2023-11-19T12:49:21;29.37;;;27.90;;
11396;SDS011;5754;43.726;7.416;2023-11-19T12:51:56;28.60;;;27.30;;
11396;SDS011;5754;43.726;7.416;2023-11-19T12:54:32;28.40;;;27.00;;
11396;SDS011;5754;43.726;7.416;2023-11-19T12:57:07;28.67;;;27.27;;
11396;SDS011;5754;43.726;7.416;2023-11-19T12:59:42;28.80;;;27.40;;
11396;SDS011;5754;43.726;7.416;2023-11-19T13:02:17;28.70;;;27.30;;
11396;SDS011;5754;43.726;7.416;2023-11-19T13:04:53;29.00;;;27.53;;
11396;SDS011;5754;43.726;7.416;2023-11-19T13:07:28;28.33;;;26.93;;
11396;SDS011;5754;43.726;7.416;2023-11-19T13:10:03;28.93;;;27.60;;
11396;SDS011;5754;43.726;7.416;2023-11-19T13:12:39;29.50;;;28.20;;
11396;SDS011;5754;43.726;7.416;2023-11-19T13:15:25;28.73;;;27.23;;
11396;SDS011;5754;43.726;7.416;2023-11-19T13:18:00;28.60;;;27.30;;
11396;SDS011;5754;43.726;7.416;2023-11-19T13:20:35;28.33;;;27.07;;
11396;SDS011;5754;43.726;7.416;2023-11-19T13:23:10;27.63;;;26.33;;
11396;SDS011;5754;43.726;7.416;2023-11-19T13:25:46;26.90;;;25.50;;
11396;SDS011;5754;43.726;7.416;2023-11-19T13:28:20;27.10;;;25.80;;
11396;SDS011;5754;43.726;7.416;2023-11-19T13:30:59;27.57;;;26.27;;
11396;SDS011;5754;43.726;7.416;2023-11-19T13:33:36;26.77;;;25.57;;
11396;SDS011;5754;43.726;7.416;2023-11-19T13:36:13;27.60;;;26.30;;
11396;SDS011;5754;43.726;7.416;2023-11-19T13:38:51;26.77;;;25.50;;
11396;SDS011;5754;43.726;7.416;2023-11-19T13:41:31;27.50;;;26.10;;
11396;SDS011;5754;43.726;7.416;2023-11-19T13:44:06;26.83;;;25.53;;
11396;SDS011;5754;43.726;7.416;2023-11-19T13:46:43;27.20;;;25.83;;
11396;SDS011;5754;43.726;7.416;2023-11-19T13:49:20;27.90;;;26.50;;
11396;SDS011;5754;43.726;7.416;2023-11-19T13:51:57;27.43;;;26.03;;
11396;SDS011;5754;43.726;7.416;2023-11-19T13:54:39;27.20;;;25.90;;
11396;SDS011;5754;43.726;7.416;2023-11-19T13:57:37;27.57;;;26.03;;
